sensor_id;sensor_type;location;lat;lon;timestamp;pressure;altitude;pressure_sealevel;temperature;humidity
21730;BME280;11027;51.030;13.812;2023-01-26T00:00:26;100960.69;;;3.29;77.53
21730;BME280;11027;51.030;13.812;2023-01-26T00:02:52;100960.44;;;3.32;77.67
21730;BME280;11027;51.030;13.812;2023-01-26T00:05:17;100952.16;;;3.35;77.39
21730;BME280;11027;51.030;13.812;2023-01-26T00:07:42;100959.13;;;3.38;77.43
21730;BME280;11027;51.030;13.812;2023-01-26T00:10:10;100953.75;;;3.38;77.27
21730;BME280;11027;51.030;13.812;2023-01-26T00:12:36;100950.06;;;3.39;77.31
21730;BME280;11027;51.030;13.812;2023-01-26T00:15:01;100946.41;;;3.40;77.33
21730;BME280;11027;51.030;13.812;2023-01-26T00:17:27;100950.06;;;3.39;77.30
21730;BME280;11027;51.030;13.812;2023-01-26T00:19:53;100946.53;;;3.38;77.21
21730;BME280;11027;51.030;13.812;2023-01-26T00:22:19;100942.22;;;3.36;77.14
21730;BME280;11027;51.030;13.812;2023-01-26T00:24:44;100938.44;;;3.38;77.33
21730;BME280;11027;51.030;13.812;2023-01-26T00:27:10;100941.88;;;3.40;77.09
21730;BME280;11027;51.030;13.812;2023-01-26T00:29:35;100943.94;;;3.37;76.94
21730;BME280;11027;51.030;13.812;2023-01-26T00:32:00;100935.34;;;3.32;76.99
21730;BME280;11027;51.030;13.812;2023-01-26T00:34:25;100935.69;;;3.27;76.98
21730;BME280;11027;51.030;13.812;2023-01-26T00:36:51;100930.53;;;3.24;76.95
21730;BME280;11027;51.030;13.812;2023-01-26T00:39:16;100922.34;;;3.26;76.92
21730;BME280;11027;51.030;13.812;2023-01-26T00:41:41;100928.69;;;3.25;76.87
21730;BME280;11027;51.030;13.812;2023-01-26T00:44:25;100929.22;;;3.30;77.05
21730;BME280;11027;51.030;13.812;2023-01-26T00:46:50;100922.84;;;3.31;76.98
21730;BME280;11027;51.030;13.812;2023-01-26T00:49:16;100924.47;;;3.33;76.86
21730;BME280;11027;51.030;13.812;2023-01-26T00:51:41;100921.53;;;3.36;76.83
21730;BME280;11027;51.030;13.812;2023-01-26T00:54:06;100917.88;;;3.37;76.90
21730;BME280;11027;51.030;13.812;2023-01-26T00:56:31;100925.97;;;3.37;76.76
21730;BME280;11027;51.030;13.812;2023-01-26T00:58:57;100930.59;;;3.35;76.87
21730;BME280;11027;51.030;13.812;2023-01-26T01:01:22;100919.84;;;3.35;76.92
21730;BME280;11027;51.030;13.812;2023-01-26T01:03:47;100923.28;;;3.37;76.96
21730;BME280;11027;51.030;13.812;2023-01-26T01:06:14;100924.22;;;3.36;76.78
21730;BME280;11027;51.030;13.812;2023-01-26T01:08:39;100918.63;;;3.39;76.85
21730;BME280;11027;51.030;13.812;2023-01-26T01:11:07;100924.75;;;3.42;76.82
21730;BME280;11027;51.030;13.812;2023-01-26T01:13:32;100925.72;;;3.40;76.96
21730;BME280;11027;51.030;13.812;2023-01-26T01:15:58;100918.94;;;3.35;76.86
21730;BME280;11027;51.030;13.812;2023-01-26T01:18:23;100923.59;;;3.33;76.74
21730;BME280;11027;51.030;13.812;2023-01-26T01:20:48;100920.91;;;3.33;76.79
21730;BME280;11027;51.030;13.812;2023-01-26T01:23:13;100920.78;;;3.34;76.83
21730;BME280;11027;51.030;13.812;2023-01-26T01:25:39;100920.78;;;3.34;76.74
21730;BME280;11027;51.030;13.812;2023-01-26T01:28:04;100921.88;;;3.32;76.63
21730;BME280;11027;51.030;13.812;2023-01-26T01:30:29;100919.97;;;3.21;76.79
21730;BME280;11027;51.030;13.812;2023-01-26T01:32:54;100915.06;;;3.15;76.75
21730;BME280;11027;51.030;13.812;2023-01-26T01:35:19;100907.97;;;3.14;77.18
21730;BME280;11027;51.030;13.812;2023-01-26T01:37:45;100909.66;;;3.15;77.15
21730;BME280;11027;51.030;13.812;2023-01-26T01:40:11;100911.16;;;3.19;77.17
21730;BME280;11027;51.030;13.812;2023-01-26T01:42:37;100903.22;;;3.17;77.08
21730;BME280;11027;51.030;13.812;2023-01-26T01:45:34;100897.66;;;3.08;77.21
21730;BME280;11027;51.030;13.812;2023-01-26T01:48:03;100896.63;;;2.97;77.34
21730;BME280;11027;51.030;13.812;2023-01-26T01:50:36;100888.31;;;3.00;77.50
21730;BME280;11027;51.030;13.812;2023-01-26T01:53:02;100887.84;;;3.07;77.45
21730;BME280;11027;51.030;13.812;2023-01-26T01:55:29;100882.59;;;3.05;77.11
21730;BME280;11027;51.030;13.812;2023-01-26T01:57:57;100883.91;;;2.99;77.59
21730;BME280;11027;51.030;13.812;2023-01-26T02:00:25;100877.66;;;2.99;77.74
21730;BME280;11027;51.030;13.812;2023-01-26T02:03:04;100880.22;;;3.00;77.84
21730;BME280;11027;51.030;13.812;2023-01-26T02:08:35;100867.75;;;2.99;78.08
21730;BME280;11027;51.030;13.812;2023-01-26T02:11:06;100858.69;;;3.00;77.94
21730;BME280;11027;51.030;13.812;2023-01-26T02:13:33;100861.91;;;3.06;77.91
21730;BME280;11027;51.030;13.812;2023-01-26T02:15:59;100867.28;;;3.06;78.02
21730;BME280;11027;51.030;13.812;2023-01-26T02:18:24;100859.72;;;3.11;77.87
21730;BME280;11027;51.030;13.812;2023-01-26T02:20:52;100868.53;;;3.13;77.76
21730;BME280;11027;51.030;13.812;2023-01-26T02:26:23;100845.03;;;3.15;77.74
21730;BME280;11027;51.030;13.812;2023-01-26T02:28:50;100835.75;;;3.19;77.74
21730;BME280;11027;51.030;13.812;2023-01-26T02:31:16;100830.38;;;3.19;77.74
21730;BME280;11027;51.030;13.812;2023-01-26T02:33:42;100833.22;;;3.17;77.80
21730;BME280;11027;51.030;13.812;2023-01-26T02:36:16;100817.78;;;3.19;77.68
21730;BME280;11027;51.030;13.812;2023-01-26T02:38:47;100821.34;;;3.20;77.66
21730;BME280;11027;51.030;13.812;2023-01-26T02:41:15;100814.22;;;3.19;77.69
21730;BME280;11027;51.030;13.812;2023-01-26T02:44:03;100810.78;;;3.17;77.68
21730;BME280;11027;51.030;13.812;2023-01-26T02:46:29;100808.09;;;3.17;77.83
21730;BME280;11027;51.030;13.812;2023-01-26T02:48:54;100801.75;;;3.18;77.82
21730;BME280;11027;51.030;13.812;2023-01-26T02:51:38;100803.44;;;3.19;77.81
21730;BME280;11027;51.030;13.812;2023-01-26T02:54:04;100805.41;;;3.17;77.92
21730;BME280;11027;51.030;13.812;2023-01-26T02:56:29;100805.19;;;3.20;77.94
21730;BME280;11027;51.030;13.812;2023-01-26T02:58:54;100808.59;;;3.22;77.91
21730;BME280;11027;51.030;13.812;2023-01-26T03:01:19;100804.94;;;3.23;77.89
21730;BME280;11027;51.030;13.812;2023-01-26T03:03:45;100807.63;;;3.23;77.77
21730;BME280;11027;51.030;13.812;2023-01-26T03:06:11;100806.88;;;3.21;77.79
21730;BME280;11027;51.030;13.812;2023-01-26T03:08:37;100806.78;;;3.23;77.67
21730;BME280;11027;51.030;13.812;2023-01-26T03:11:04;100801.50;;;3.21;77.80
21730;BME280;11027;51.030;13.812;2023-01-26T03:13:30;100801.50;;;3.21;77.85
21730;BME280;11027;51.030;13.812;2023-01-26T03:15:56;100794.41;;;3.20;77.85
21730;BME280;11027;51.030;13.812;2023-01-26T03:18:26;100799.78;;;3.20;77.97
21730;BME280;11027;51.030;13.812;2023-01-26T03:21:13;100796.09;;;3.21;77.96
21730;BME280;11027;51.030;13.812;2023-01-26T03:23:57;100794.41;;;3.20;77.70
21730;BME280;11027;51.030;13.812;2023-01-26T03:26:41;100788.28;;;3.18;77.85
21730;BME280;11027;51.030;13.812;2023-01-26T03:29:25;100798.06;;;3.19;77.76
21730;BME280;11027;51.030;13.812;2023-01-26T03:31:54;100801.75;;;3.18;77.94
21730;BME280;11027;51.030;13.812;2023-01-26T03:34:20;100794.63;;;3.17;77.91
21730;BME280;11027;51.030;13.812;2023-01-26T03:36:46;100793.78;;;3.16;77.92
21730;BME280;11027;51.030;13.812;2023-01-26T03:39:12;100787.28;;;3.19;77.86
21730;BME280;11027;51.030;13.812;2023-01-26T03:41:57;100784.59;;;3.19;77.79
21730;BME280;11027;51.030;13.812;2023-01-26T03:44:41;100787.28;;;3.19;77.77
21730;BME280;11027;51.030;13.812;2023-01-26T03:47:25;100780.31;;;3.16;77.88
21730;BME280;11027;51.030;13.812;2023-01-26T03:50:09;100777.72;;;3.15;77.92
21730;BME280;11027;51.030;13.812;2023-01-26T03:52:53;100774.19;;;3.14;77.60
21730;BME280;11027;51.030;13.812;2023-01-26T03:55:37;100767.94;;;3.14;78.09
21730;BME280;11027;51.030;13.812;2023-01-26T03:58:21;100773.09;;;3.17;78.17
21730;BME280;11027;51.030;13.812;2023-01-26T04:00:48;100773.09;;;3.17;77.83
21730;BME280;11027;51.030;13.812;2023-01-26T04:03:13;100766.84;;;3.16;77.85
21730;BME280;11027;51.030;13.812;2023-01-26T04:05:58;100769.44;;;3.18;77.89
21730;BME280;11027;51.030;13.812;2023-01-26T04:08:43;100763.31;;;3.16;77.94
21730;BME280;11027;51.030;13.812;2023-01-26T04:11:12;100758.88;;;3.15;77.82
21730;BME280;11027;51.030;13.812;2023-01-26T04:13:37;100764.25;;;3.15;77.95
21730;BME280;11027;51.030;13.812;2023-01-26T04:16:21;100756.19;;;3.15;77.83
21730;BME280;11027;51.030;13.812;2023-01-26T04:19:05;100757.19;;;3.14;77.99
21730;BME280;11027;51.030;13.812;2023-01-26T04:21:49;100753.50;;;3.15;77.92
21730;BME280;11027;51.030;13.812;2023-01-26T04:24:14;100759.34;;;3.09;78.09
21730;BME280;11027;51.030;13.812;2023-01-26T04:26:41;100754.72;;;3.11;78.14
21730;BME280;11027;51.030;13.812;2023-01-26T04:29:09;100759.34;;;3.09;78.19
21730;BME280;11027;51.030;13.812;2023-01-26T04:31:34;100750.28;;;2.98;78.24
21730;BME280;11027;51.030;13.812;2023-01-26T04:34:00;100750.75;;;2.92;78.58
21730;BME280;11027;51.030;13.812;2023-01-26T04:36:26;100746.09;;;2.94;78.79
21730;BME280;11027;51.030;13.812;2023-01-26T04:38:51;100754.91;;;2.96;78.97
21730;BME280;11027;51.030;13.812;2023-01-26T04:41:16;100745.88;;;2.97;78.88
21730;BME280;11027;51.030;13.812;2023-01-26T04:43:42;100735.09;;;2.97;78.88
21730;BME280;11027;51.030;13.812;2023-01-26T04:46:08;100743.41;;;2.94;79.11
21730;BME280;11027;51.030;13.812;2023-01-26T04:48:34;100733.38;;;2.96;79.22
21730;BME280;11027;51.030;13.812;2023-01-26T04:51:33;100735.84;;;2.99;79.02
21730;BME280;11027;51.030;13.812;2023-01-26T04:53:52;100736.59;;;3.02;79.01
21730;BME280;11027;51.030;13.812;2023-01-26T04:56:32;100738.75;;;2.96;79.05
21730;BME280;11027;51.030;13.812;2023-01-26T04:59:00;100731.44;;;2.98;79.16
21730;BME280;11027;51.030;13.812;2023-01-26T05:01:25;100726.56;;;3.04;79.27
21730;BME280;11027;51.030;13.812;2023-01-26T05:03:51;100736.13;;;3.08;79.08
21730;BME280;11027;51.030;13.812;2023-01-26T05:06:16;100734.16;;;3.10;78.96
21730;BME280;11027;51.030;13.812;2023-01-26T05:08:42;100726.94;;;3.10;78.86
21730;BME280;11027;51.030;13.812;2023-01-26T05:11:07;100728.78;;;3.10;78.68
21730;BME280;11027;51.030;13.812;2023-01-26T05:13:33;100733.16;;;3.11;78.60
21730;BME280;11027;51.030;13.812;2023-01-26T05:16:03;100740.66;;;3.07;78.63
21730;BME280;11027;51.030;13.812;2023-01-26T05:18:29;100741.97;;;3.02;78.82
21730;BME280;11027;51.030;13.812;2023-01-26T05:20:55;100739.66;;;2.97;78.90
21730;BME280;11027;51.030;13.812;2023-01-26T05:23:21;100744.16;;;2.96;78.90
21730;BME280;11027;51.030;13.812;2023-01-26T05:25:46;100744.16;;;2.96;79.11
21730;BME280;11027;51.030;13.812;2023-01-26T05:28:11;100742.19;;;2.98;79.18
21730;BME280;11027;51.030;13.812;2023-01-26T05:30:36;100745.63;;;3.00;79.18
21730;BME280;11027;51.030;13.812;2023-01-26T05:33:03;100744.16;;;2.96;79.28
21730;BME280;11027;51.030;13.812;2023-01-26T05:35:29;100754.91;;;2.96;79.26
21730;BME280;11027;51.030;13.812;2023-01-26T05:37:54;100751.25;;;2.97;79.36
21730;BME280;11027;51.030;13.812;2023-01-26T05:40:20;100745.13;;;2.95;79.44
21730;BME280;11027;51.030;13.812;2023-01-26T05:42:46;100751.47;;;2.94;79.60
21730;BME280;11027;51.030;13.812;2023-01-26T05:45:11;100747.09;;;2.93;79.76
21730;BME280;11027;51.030;13.812;2023-01-26T05:47:37;100751.47;;;2.94;80.09
21730;BME280;11027;51.030;13.812;2023-01-26T05:50:03;100748.69;;;2.96;79.78
21730;BME280;11027;51.030;13.812;2023-01-26T05:52:29;100752.59;;;2.92;79.69
21730;BME280;11027;51.030;13.812;2023-01-26T05:54:54;100747.81;;;2.95;79.74
21730;BME280;11027;51.030;13.812;2023-01-26T05:57:19;100735.81;;;2.88;79.75
21730;BME280;11027;51.030;13.812;2023-01-26T05:59:44;100737.75;;;2.86;79.54
21730;BME280;11027;51.030;13.812;2023-01-26T06:02:10;100747.56;;;2.87;80.09
21730;BME280;11027;51.030;13.812;2023-01-26T06:04:36;100744.63;;;2.90;79.66
21730;BME280;11027;51.030;13.812;2023-01-26T06:07:01;100753.28;;;2.83;79.73
21730;BME280;11027;51.030;13.812;2023-01-26T06:09:26;100746.75;;;2.74;79.97
21730;BME280;11027;51.030;13.812;2023-01-26T06:11:52;100743.13;;;2.75;80.18
21730;BME280;11027;51.030;13.812;2023-01-26T06:14:17;100742.38;;;2.73;80.19
21730;BME280;11027;51.030;13.812;2023-01-26T06:16:42;100747.50;;;2.76;80.30
21730;BME280;11027;51.030;13.812;2023-01-26T06:19:09;100748.25;;;2.78;80.38
21730;BME280;11027;51.030;13.812;2023-01-26T06:21:34;100749.00;;;2.80;80.22
21730;BME280;11027;51.030;13.812;2023-01-26T06:24:00;100752.16;;;2.74;80.13
21730;BME280;11027;51.030;13.812;2023-01-26T06:26:25;100760.84;;;2.53;80.32
21730;BME280;11027;51.030;13.812;2023-01-26T06:28:51;100762.06;;;2.49;80.74
21730;BME280;11027;51.030;13.812;2023-01-26T06:31:17;100768.53;;;2.47;81.00
21730;BME280;11027;51.030;13.812;2023-01-26T06:33:43;100766.50;;;2.37;81.20
21730;BME280;11027;51.030;13.812;2023-01-26T06:36:10;100752.22;;;2.37;81.62
21730;BME280;11027;51.030;13.812;2023-01-26T06:38:36;100760.03;;;2.40;81.74
21730;BME280;11027;51.030;13.812;2023-01-26T06:41:03;100765.66;;;2.37;81.78
21730;BME280;11027;51.030;13.812;2023-01-26T06:43:32;100766.91;;;2.44;81.93
21730;BME280;11027;51.030;13.812;2023-01-26T06:45:59;100764.00;;;2.47;81.78
21730;BME280;11027;51.030;13.812;2023-01-26T06:48:27;100757.53;;;2.50;81.81
21730;BME280;11027;51.030;13.812;2023-01-26T06:50:56;100757.91;;;2.56;81.88
21730;BME280;11027;51.030;13.812;2023-01-26T06:53:28;100752.09;;;2.63;81.72
21730;BME280;11027;51.030;13.812;2023-01-26T06:55:54;100752.97;;;2.63;81.56
21730;BME280;11027;51.030;13.812;2023-01-26T06:58:19;100750.16;;;2.65;81.62
21730;BME280;11027;51.030;13.812;2023-01-26T07:00:44;100749.06;;;2.67;81.39
21730;BME280;11027;51.030;13.812;2023-01-26T07:03:10;100740.88;;;2.69;81.42
21730;BME280;11027;51.030;13.812;2023-01-26T07:05:35;100751.41;;;2.72;81.18
21730;BME280;11027;51.030;13.812;2023-01-26T07:08:01;100756.03;;;2.70;81.17
21730;BME280;11027;51.030;13.812;2023-01-26T07:10:28;100753.13;;;2.73;81.13
21730;BME280;11027;51.030;13.812;2023-01-26T07:12:54;100750.44;;;2.73;81.15
21730;BME280;11027;51.030;13.812;2023-01-26T07:15:19;100749.69;;;2.71;80.92
21730;BME280;11027;51.030;13.812;2023-01-26T07:17:44;100747.13;;;2.69;81.23
21730;BME280;11027;51.030;13.812;2023-01-26T07:20:10;100742.59;;;2.70;81.29
21730;BME280;11027;51.030;13.812;2023-01-26T07:22:35;100750.28;;;2.63;81.31
21730;BME280;11027;51.030;13.812;2023-01-26T07:25:00;100747.41;;;2.53;81.38
21730;BME280;11027;51.030;13.812;2023-01-26T07:27:25;100744.44;;;2.45;81.62
21730;BME280;11027;51.030;13.812;2023-01-26T07:29:51;100748.06;;;2.44;81.76
21730;BME280;11027;51.030;13.812;2023-01-26T07:32:16;100742.94;;;2.41;81.92
21730;BME280;11027;51.030;13.812;2023-01-26T07:34:41;100748.31;;;2.41;82.16
21730;BME280;11027;51.030;13.812;2023-01-26T07:37:06;100748.31;;;2.41;82.29
21730;BME280;11027;51.030;13.812;2023-01-26T07:39:32;100748.53;;;2.38;82.41
21730;BME280;11027;51.030;13.812;2023-01-26T07:41:57;100753.06;;;2.37;82.45
21730;BME280;11027;51.030;13.812;2023-01-26T07:44:22;100744.66;;;2.42;82.59
21730;BME280;11027;51.030;13.812;2023-01-26T07:46:47;100741.75;;;2.45;82.61
21730;BME280;11027;51.030;13.812;2023-01-26T07:49:13;100743.97;;;2.51;82.84
21730;BME280;11027;51.030;13.812;2023-01-26T07:51:38;100752.53;;;2.56;82.54
21730;BME280;11027;51.030;13.812;2023-01-26T07:54:06;100751.88;;;2.66;82.43
21730;BME280;11027;51.030;13.812;2023-01-26T07:56:34;100750.56;;;2.71;82.34
21730;BME280;11027;51.030;13.812;2023-01-26T07:59:00;100758.25;;;2.76;81.87
21730;BME280;11027;51.030;13.812;2023-01-26T08:01:26;100751.19;;;2.75;81.88
21730;BME280;11027;51.030;13.812;2023-01-26T08:03:51;100752.16;;;2.74;81.90
21730;BME280;11027;51.030;13.812;2023-01-26T08:06:18;100756.31;;;2.78;82.01
21730;BME280;11027;51.030;13.812;2023-01-26T08:08:45;100750.72;;;2.81;81.82
21730;BME280;11027;51.030;13.812;2023-01-26T08:11:11;100745.34;;;2.81;81.78
21730;BME280;11027;51.030;13.812;2023-01-26T08:13:37;100740.16;;;2.78;81.62
21730;BME280;11027;51.030;13.812;2023-01-26T08:16:07;100749.72;;;2.82;81.48
21730;BME280;11027;51.030;13.812;2023-01-26T08:18:35;100749.00;;;2.80;81.38
21730;BME280;11027;51.030;13.812;2023-01-26T08:21:01;100748.44;;;2.64;81.40
21730;BME280;11027;51.030;13.812;2023-01-26T08:23:26;100740.81;;;2.57;81.52
21730;BME280;11027;51.030;13.812;2023-01-26T08:25:51;100744.25;;;2.59;81.46
21730;BME280;11027;51.030;13.812;2023-01-26T08:28:17;100741.00;;;2.43;81.83
21730;BME280;11027;51.030;13.812;2023-01-26T08:30:42;100741.66;;;2.34;81.80
21730;BME280;11027;51.030;13.812;2023-01-26T08:33:07;100738.03;;;2.35;81.97
21730;BME280;11027;51.030;13.812;2023-01-26T08:35:33;100741.47;;;2.37;82.03
21730;BME280;11027;51.030;13.812;2023-01-26T08:37:58;100744.50;;;2.32;82.18
21730;BME280;11027;51.030;13.812;2023-01-26T08:40:24;100739.97;;;2.33;82.26
21730;BME280;11027;51.030;13.812;2023-01-26T08:42:50;100743.63;;;2.32;82.45
21730;BME280;11027;51.030;13.812;2023-01-26T08:45:16;100742.19;;;2.39;82.55
21730;BME280;11027;51.030;13.812;2023-01-26T08:47:42;100738.88;;;2.35;82.36
21730;BME280;11027;51.030;13.812;2023-01-26T08:50:08;100734.34;;;2.36;82.18
21730;BME280;11027;51.030;13.812;2023-01-26T08:52:33;100731.47;;;2.26;82.24
21730;BME280;11027;51.030;13.812;2023-01-26T08:54:58;100733.09;;;2.29;82.58
21730;BME280;11027;51.030;13.812;2023-01-26T08:57:25;100736.53;;;2.31;82.43
21730;BME280;11027;51.030;13.812;2023-01-26T08:59:51;100745.63;;;2.41;82.62
21730;BME280;11027;51.030;13.812;2023-01-26T09:02:16;100741.00;;;2.43;82.36
21730;BME280;11027;51.030;13.812;2023-01-26T09:04:41;100746.78;;;2.50;82.40
21730;BME280;11027;51.030;13.812;2023-01-26T09:07:06;100741.78;;;2.56;82.28
21730;BME280;11027;51.030;13.812;2023-01-26T09:09:32;100746.72;;;2.63;82.17
21730;BME280;11027;51.030;13.812;2023-01-26T09:11:57;100745.84;;;2.62;81.85
21730;BME280;11027;51.030;13.812;2023-01-26T09:14:23;100745.94;;;2.60;81.69
21730;BME280;11027;51.030;13.812;2023-01-26T09:16:48;100751.59;;;2.57;81.63
21730;BME280;11027;51.030;13.812;2023-01-26T09:19:13;100753.28;;;2.58;81.67
21730;BME280;11027;51.030;13.812;2023-01-26T09:21:39;100739.84;;;2.58;81.63
21730;BME280;11027;51.030;13.812;2023-01-26T09:24:04;100742.41;;;2.60;81.71
21730;BME280;11027;51.030;13.812;2023-01-26T09:26:30;100747.59;;;2.63;81.67
21730;BME280;11027;51.030;13.812;2023-01-26T09:28:55;100759.19;;;2.64;81.60
21730;BME280;11027;51.030;13.812;2023-01-26T09:31:21;100774.38;;;2.65;81.62
21730;BME280;11027;51.030;13.812;2023-01-26T09:33:47;100771.44;;;2.68;81.65
21730;BME280;11027;51.030;13.812;2023-01-26T09:36:13;100772.19;;;2.70;81.67
21730;BME280;11027;51.030;13.812;2023-01-26T09:38:38;100762.78;;;2.75;81.46
21730;BME280;11027;51.030;13.812;2023-01-26T09:41:14;100771.50;;;2.79;81.26
21730;BME280;11027;51.030;13.812;2023-01-26T09:43:54;100764.75;;;2.73;81.17
21730;BME280;11027;51.030;13.812;2023-01-26T09:46:23;100762.16;;;2.72;81.17
21730;BME280;11027;51.030;13.812;2023-01-26T09:51:32;100771.81;;;2.50;81.14
21730;BME280;11027;51.030;13.812;2023-01-26T09:57:00;100767.06;;;2.30;81.56
21730;BME280;11027;51.030;13.812;2023-01-26T09:59:35;100760.66;;;2.19;81.91
21730;BME280;11027;51.030;13.812;2023-01-26T10:02:17;100775.19;;;2.17;82.12
21730;BME280;11027;51.030;13.812;2023-01-26T10:04:47;100772.31;;;2.07;82.56
21730;BME280;11027;51.030;13.812;2023-01-26T10:07:15;100770.16;;;2.12;83.19
21730;BME280;11027;51.030;13.812;2023-01-26T10:09:45;100761.09;;;2.13;82.82
21730;BME280;11027;51.030;13.812;2023-01-26T10:12:29;100763.97;;;2.23;83.09
21730;BME280;11027;51.030;13.812;2023-01-26T10:15:16;100766.84;;;2.33;83.03
21730;BME280;11027;51.030;13.812;2023-01-26T10:17:44;100758.78;;;2.33;82.83
21730;BME280;11027;51.030;13.812;2023-01-26T10:20:32;100758.69;;;2.34;82.74
21730;BME280;11027;51.030;13.812;2023-01-26T10:23:11;100753.91;;;2.38;82.64
21730;BME280;11027;51.030;13.812;2023-01-26T10:25:39;100753.31;;;2.34;82.12
21730;BME280;11027;51.030;13.812;2023-01-26T10:28:13;100761.94;;;2.27;82.33
21730;BME280;11027;51.030;13.812;2023-01-26T10:30:41;100762.16;;;2.24;82.40
21730;BME280;11027;51.030;13.812;2023-01-26T10:33:15;100757.84;;;2.21;82.45
21730;BME280;11027;51.030;13.812;2023-01-26T10:35:42;100752.38;;;2.23;82.26
21730;BME280;11027;51.030;13.812;2023-01-26T10:38:43;100752.13;;;2.26;82.62
21730;BME280;11027;51.030;13.812;2023-01-26T10:41:20;100748.41;;;2.15;82.71
21730;BME280;11027;51.030;13.812;2023-01-26T10:46:37;100745.34;;;2.33;82.83
21730;BME280;11027;51.030;13.812;2023-01-26T10:49:15;100737.91;;;2.36;82.46
21730;BME280;11027;51.030;13.812;2023-01-26T10:51:45;100735.97;;;2.38;82.72
21730;BME280;11027;51.030;13.812;2023-01-26T10:54:28;100736.38;;;2.45;82.91
21730;BME280;11027;51.030;13.812;2023-01-26T10:57:38;100735.16;;;2.49;82.43
21730;BME280;11027;51.030;13.812;2023-01-26T11:00:24;100732.09;;;2.43;82.00
21730;BME280;11027;51.030;13.812;2023-01-26T11:02:52;100732.41;;;2.38;81.97
21730;BME280;11027;51.030;13.812;2023-01-26T11:05:21;100728.22;;;2.34;82.09
21730;BME280;11027;51.030;13.812;2023-01-26T11:07:49;100726.00;;;2.28;82.41
21730;BME280;11027;51.030;13.812;2023-01-26T11:10:15;100723.09;;;2.31;82.48
21730;BME280;11027;51.030;13.812;2023-01-26T11:12:41;100721.88;;;2.35;82.53
21730;BME280;11027;51.030;13.812;2023-01-26T11:17:58;100731.59;;;2.25;82.29
21730;BME280;11027;51.030;13.812;2023-01-26T11:23:30;100733.13;;;2.16;82.61
21730;BME280;11027;51.030;13.812;2023-01-26T11:26:10;100723.88;;;2.20;82.81
21730;BME280;11027;51.030;13.812;2023-01-26T11:28:53;100725.78;;;2.31;82.78
21730;BME280;11027;51.030;13.812;2023-01-26T11:31:48;100719.09;;;2.36;82.79
21730;BME280;11027;51.030;13.812;2023-01-26T11:34:44;100718.91;;;2.27;82.54
21730;BME280;11027;51.030;13.812;2023-01-26T11:40:32;100705.38;;;1.91;82.54
21730;BME280;11027;51.030;13.812;2023-01-26T11:48:43;100697.94;;;1.95;82.95
21730;BME280;11027;51.030;13.812;2023-01-26T11:54:16;100687.84;;;1.86;82.87
21730;BME280;11027;51.030;13.812;2023-01-26T11:59:59;100694.50;;;1.93;82.88
21730;BME280;11027;51.030;13.812;2023-01-26T12:02:25;100685.41;;;1.83;82.61
21730;BME280;11027;51.030;13.812;2023-01-26T12:04:52;100687.56;;;1.77;82.76
21730;BME280;11027;51.030;13.812;2023-01-26T12:07:32;100683.91;;;1.78;82.74
21730;BME280;11027;51.030;13.812;2023-01-26T12:10:16;100681.44;;;1.75;82.62
21730;BME280;11027;51.030;13.812;2023-01-26T12:12:46;100673.50;;;1.74;82.75
21730;BME280;11027;51.030;13.812;2023-01-26T12:15:20;100662.91;;;1.84;82.76
21730;BME280;11027;51.030;13.812;2023-01-26T12:17:59;100666.88;;;1.91;82.43
21730;BME280;11027;51.030;13.812;2023-01-26T12:20:38;100660.84;;;2.00;82.01
21730;BME280;11027;51.030;13.812;2023-01-26T12:23:12;100659.41;;;2.07;81.84
21730;BME280;11027;51.030;13.812;2023-01-26T12:25:44;100654.03;;;2.07;81.65
21730;BME280;11027;51.030;13.812;2023-01-26T12:28:15;100656.63;;;2.09;81.81
21730;BME280;11027;51.030;13.812;2023-01-26T12:33:40;100650.66;;;2.16;81.12
21730;BME280;11027;51.030;13.812;2023-01-26T12:39:02;100657.63;;;1.95;81.02
21730;BME280;11027;51.030;13.812;2023-01-26T12:44:38;100651.66;;;1.78;80.60
21730;BME280;11027;51.030;13.812;2023-01-26T12:47:11;100652.41;;;1.80;80.79
21730;BME280;11027;51.030;13.812;2023-01-26T12:52:28;100642.97;;;1.75;80.90
21730;BME280;11027;51.030;13.812;2023-01-26T12:55:05;100638.44;;;1.75;80.96
21730;BME280;11027;51.030;13.812;2023-01-26T12:57:39;100641.66;;;1.80;80.91
21730;BME280;11027;51.030;13.812;2023-01-26T13:00:27;100632.81;;;1.91;80.88
21730;BME280;11027;51.030;13.812;2023-01-26T13:05:31;100626.94;;;2.10;80.25
21730;BME280;11027;51.030;13.812;2023-01-26T13:07:57;100615.94;;;2.13;79.91
21730;BME280;11027;51.030;13.812;2023-01-26T13:10:27;100621.31;;;2.13;79.76
21730;BME280;11027;51.030;13.812;2023-01-26T13:13:00;100620.34;;;2.14;79.81
21730;BME280;11027;51.030;13.812;2023-01-26T13:15:44;100620.75;;;2.21;79.74
21730;BME280;11027;51.030;13.812;2023-01-26T13:18:16;100619.63;;;2.12;79.25
21730;BME280;11027;51.030;13.812;2023-01-26T13:20:44;100625.22;;;2.09;79.10
21730;BME280;11027;51.030;13.812;2023-01-26T13:23:35;100630.81;;;2.06;78.80
21730;BME280;11027;51.030;13.812;2023-01-26T13:26:23;100626.69;;;1.89;79.03
21730;BME280;11027;51.030;13.812;2023-01-26T13:28:49;100625.75;;;1.77;78.88
21730;BME280;11027;51.030;13.812;2023-01-26T13:31:30;100627.53;;;1.66;79.62
21730;BME280;11027;51.030;13.812;2023-01-26T13:33:59;100626.66;;;1.65;79.65
21730;BME280;11027;51.030;13.812;2023-01-26T13:36:29;100620.50;;;1.52;79.66
21730;BME280;11027;51.030;13.812;2023-01-26T13:39:11;100623.28;;;1.50;80.17
21730;BME280;11027;51.030;13.812;2023-01-26T13:41:45;100624.97;;;1.64;80.20
21730;BME280;11027;51.030;13.812;2023-01-26T13:44:19;100631.19;;;1.65;79.73
21730;BME280;11027;51.030;13.812;2023-01-26T13:46:52;100635.91;;;1.61;79.51
21730;BME280;11027;51.030;13.812;2023-01-26T13:49:23;100632.47;;;1.59;79.28
21730;BME280;11027;51.030;13.812;2023-01-26T13:51:49;100627.66;;;1.64;79.07